sensor_id;sensor_type;location;lat;lon;timestamp;pressure;altitude;pressure_sealevel;temperature;humidity
13080;BME280;6606;49.154;9.280;2023-12-04T00:00:05;99922.97;;;-4.78;100.00
13080;BME280;6606;49.154;9.280;2023-12-04T00:02:52;99919.53;;;-4.76;100.00
13080;BME280;6606;49.154;9.280;2023-12-04T00:05:34;99905.81;;;-4.66;100.00
13080;BME280;6606;49.154;9.280;2023-12-04T00:08:17;99914.41;;;-4.71;100.00
13080;BME280;6606;49.154;9.280;2023-12-04T00:10:59;99909.16;;;-4.74;100.00
13080;BME280;6606;49.154;9.280;2023-12-04T00:13:41;99911.81;;;-4.70;100.00
13080;BME280;6606;49.154;9.280;2023-12-04T00:16:23;99912.75;;;-4.63;100.00
13080;BME280;6606;49.154;9.280;2023-12-04T00:19:05;99917.06;;;-4.62;100.00
13080;BME280;6606;49.154;9.280;2023-12-04T00:21:48;99897.22;;;-4.63;100.00
13080;BME280;6606;49.154;9.280;2023-12-04T00:24:31;99894.53;;;-4.74;100.00
13080;BME280;6606;49.154;9.280;2023-12-04T00:27:13;99885.06;;;-4.67;100.00
13080;BME280;6606;49.154;9.280;2023-12-04T00:29:55;99879.84;;;-4.70;100.00
13080;BME280;6606;49.154;9.280;2023-12-04T00:32:36;99875.53;;;-4.70;100.00
13080;BME280;6606;49.154;9.280;2023-12-04T00:35:18;99864.25;;;-4.75;100.00
13080;BME280;6606;49.154;9.280;2023-12-04T00:38:00;99863.44;;;-4.74;100.00
13080;BME280;6606;49.154;9.280;2023-12-04T00:40:43;99853.84;;;-4.79;100.00
13080;BME280;6606;49.154;9.280;2023-12-04T00:43:26;99863.22;;;-4.94;100.00
13080;BME280;6606;49.154;9.280;2023-12-04T00:46:08;99864.13;;;-4.89;100.00
13080;BME280;6606;49.154;9.280;2023-12-04T00:48:51;99866.63;;;-4.98;100.00
13080;BME280;6606;49.154;9.280;2023-12-04T00:51:37;99857.13;;;-5.00;100.00
13080;BME280;6606;49.154;9.280;2023-12-04T00:54:19;99861.53;;;-4.92;100.00
13080;BME280;6606;49.154;9.280;2023-12-04T00:57:04;99862.34;;;-4.93;100.00
13080;BME280;6606;49.154;9.280;2023-12-04T00:59:46;99862.34;;;-4.96;100.00
13080;BME280;6606;49.154;9.280;2023-12-04T01:02:28;99862.34;;;-4.97;100.00
13080;BME280;6606;49.154;9.280;2023-12-04T01:05:09;99850.09;;;-5.09;100.00
13080;BME280;6606;49.154;9.280;2023-12-04T01:07:52;99848.25;;;-5.22;100.00
13080;BME280;6606;49.154;9.280;2023-12-04T01:10:34;99845.69;;;-5.21;100.00
13080;BME280;6606;49.154;9.280;2023-12-04T01:13:17;99840.63;;;-5.10;100.00
13080;BME280;6606;49.154;9.280;2023-12-04T01:15:59;99821.66;;;-5.08;100.00
13080;BME280;6606;49.154;9.280;2023-12-04T01:18:41;99814.81;;;-5.02;100.00
13080;BME280;6606;49.154;9.280;2023-12-04T01:21:23;99830.31;;;-5.06;100.00
13080;BME280;6606;49.154;9.280;2023-12-04T01:24:05;99827.66;;;-5.10;100.00
13080;BME280;6606;49.154;9.280;2023-12-04T01:26:47;99833.69;;;-5.13;100.00
13080;BME280;6606;49.154;9.280;2023-12-04T01:29:30;99834.53;;;-5.12;100.00
13080;BME280;6606;49.154;9.280;2023-12-04T01:32:13;99823.31;;;-5.11;100.00
13080;BME280;6606;49.154;9.280;2023-12-04T01:34:54;99829.38;;;-5.12;100.00
13080;BME280;6606;49.154;9.280;2023-12-04T01:37:37;99825.06;;;-5.12;100.00
13080;BME280;6606;49.154;9.280;2023-12-04T01:40:19;99826.81;;;-5.09;100.00
13080;BME280;6606;49.154;9.280;2023-12-04T01:43:01;99827.66;;;-5.13;100.00
13080;BME280;6606;49.154;9.280;2023-12-04T01:45:45;99806.03;;;-5.15;100.00
13080;BME280;6606;49.154;9.280;2023-12-04T01:48:28;99800.88;;;-5.15;100.00
13080;BME280;6606;49.154;9.280;2023-12-04T01:51:12;99794.72;;;-5.26;100.00
13080;BME280;6606;49.154;9.280;2023-12-04T01:53:55;99799.06;;;-5.24;100.00
13080;BME280;6606;49.154;9.280;2023-12-04T01:56:37;99791.31;;;-5.19;100.00
13080;BME280;6606;49.154;9.280;2023-12-04T01:59:19;99800.88;;;-5.12;100.00
13080;BME280;6606;49.154;9.280;2023-12-04T02:02:04;99805.19;;;-5.11;100.00
13080;BME280;6606;49.154;9.280;2023-12-04T02:04:46;99793.22;;;-5.03;100.00
13080;BME280;6606;49.154;9.280;2023-12-04T02:07:30;99799.28;;;-4.99;100.00
13080;BME280;6606;49.154;9.280;2023-12-04T02:10:13;99791.56;;;-4.95;100.00
13080;BME280;6606;49.154;9.280;2023-12-04T02:12:55;99800.22;;;-4.91;100.00
13080;BME280;6606;49.154;9.280;2023-12-04T02:15:39;99795.13;;;-4.84;100.00
13080;BME280;6606;49.154;9.280;2023-12-04T02:18:22;99798.50;;;-4.91;100.00
13080;BME280;6606;49.154;9.280;2023-12-04T02:21:05;99786.47;;;-4.86;100.00
13080;BME280;6606;49.154;9.280;2023-12-04T02:23:50;99787.38;;;-4.80;100.00
13080;BME280;6606;49.154;9.280;2023-12-04T02:26:37;99781.28;;;-4.86;100.00
13080;BME280;6606;49.154;9.280;2023-12-04T02:29:23;99779.53;;;-4.90;100.00
13080;BME280;6606;49.154;9.280;2023-12-04T02:32:10;99766.59;;;-4.85;100.00
13080;BME280;6606;49.154;9.280;2023-12-04T02:34:54;99771.81;;;-4.84;100.00
13080;BME280;6606;49.154;9.280;2023-12-04T02:37:38;99763.16;;;-4.87;100.00
13080;BME280;6606;49.154;9.280;2023-12-04T02:40:22;99764.91;;;-4.85;100.00
13080;BME280;6606;49.154;9.280;2023-12-04T02:43:04;99760.41;;;-5.01;100.00
13080;BME280;6606;49.154;9.280;2023-12-04T02:45:46;99761.34;;;-4.97;100.00
13080;BME280;6606;49.154;9.280;2023-12-04T02:48:28;99757.00;;;-5.00;100.00
13080;BME280;6606;49.154;9.280;2023-12-04T02:51:10;99749.13;;;-5.09;100.00
13080;BME280;6606;49.154;9.280;2023-12-04T02:53:52;99738.81;;;-5.08;100.00
13080;BME280;6606;49.154;9.280;2023-12-04T02:56:35;99746.59;;;-5.01;100.00
13080;BME280;6606;49.154;9.280;2023-12-04T02:59:18;99738.00;;;-4.99;100.00
13080;BME280;6606;49.154;9.280;2023-12-04T03:02:00;99740.53;;;-5.03;100.00
13080;BME280;6606;49.154;9.280;2023-12-04T03:04:42;99729.31;;;-5.04;100.00
13080;BME280;6606;49.154;9.280;2023-12-04T03:07:23;99731.88;;;-5.09;100.00
13080;BME280;6606;49.154;9.280;2023-12-04T03:10:07;99714.63;;;-5.08;100.00
13080;BME280;6606;49.154;9.280;2023-12-04T03:12:51;99718.84;;;-5.19;100.00
13080;BME280;6606;49.154;9.280;2023-12-04T03:15:32;99713.63;;;-5.22;100.00
13080;BME280;6606;49.154;9.280;2023-12-04T03:18:15;99711.97;;;-5.16;100.00
13080;BME280;6606;49.154;9.280;2023-12-04T03:20:57;99704.28;;;-5.08;100.00
13080;BME280;6606;49.154;9.280;2023-12-04T03:23:39;99687.91;;;-5.01;100.00
13080;BME280;6606;49.154;9.280;2023-12-04T03:26:21;99677.63;;;-4.95;100.00
13080;BME280;6606;49.154;9.280;2023-12-04T03:29:06;99679.31;;;-4.97;100.00
13080;BME280;6606;49.154;9.280;2023-12-04T03:31:48;99681.06;;;-4.97;100.00
13080;BME280;6606;49.154;9.280;2023-12-04T03:34:30;99667.28;;;-4.92;100.00
13080;BME280;6606;49.154;9.280;2023-12-04T03:37:11;99675.88;;;-4.96;100.00
13080;BME280;6606;49.154;9.280;2023-12-04T03:39:53;99667.28;;;-4.89;100.00
13080;BME280;6606;49.154;9.280;2023-12-04T03:42:35;99673.34;;;-4.88;100.00
13080;BME280;6606;49.154;9.280;2023-12-04T03:45:18;99669.00;;;-4.88;100.00
13080;BME280;6606;49.154;9.280;2023-12-04T03:48:00;99671.63;;;-4.86;100.00
13080;BME280;6606;49.154;9.280;2023-12-04T03:50:42;99664.69;;;-4.90;100.00
13080;BME280;6606;49.154;9.280;2023-12-04T03:53:24;99660.34;;;-4.93;100.00
13080;BME280;6606;49.154;9.280;2023-12-04T03:56:06;99649.09;;;-4.98;100.00
13080;BME280;6606;49.154;9.280;2023-12-04T03:58:48;99646.47;;;-5.01;100.00
13080;BME280;6606;49.154;9.280;2023-12-04T04:01:32;99642.22;;;-4.93;100.00
13080;BME280;6606;49.154;9.280;2023-12-04T04:04:13;99630.19;;;-4.86;100.00
13080;BME280;6606;49.154;9.280;2023-12-04T04:06:55;99620.66;;;-4.89;100.00
13080;BME280;6606;49.154;9.280;2023-12-04T04:09:37;99606.03;;;-4.84;100.00
13080;BME280;6606;49.154;9.280;2023-12-04T04:12:19;99617.31;;;-4.72;100.00
13080;BME280;6606;49.154;9.280;2023-12-04T04:15:01;99611.25;;;-4.79;100.00
13080;BME280;6606;49.154;9.280;2023-12-04T04:17:44;99620.69;;;-4.82;100.00
13080;BME280;6606;49.154;9.280;2023-12-04T04:20:26;99618.09;;;-4.86;100.00
13080;BME280;6606;49.154;9.280;2023-12-04T04:23:08;99616.41;;;-4.79;100.00
13080;BME280;6606;49.154;9.280;2023-12-04T04:25:49;99613.88;;;-4.71;100.00
13080;BME280;6606;49.154;9.280;2023-12-04T04:28:32;99620.81;;;-4.66;100.00
13080;BME280;6606;49.154;9.280;2023-12-04T04:31:14;99621.69;;;-4.59;100.00
13080;BME280;6606;49.154;9.280;2023-12-04T04:33:58;99615.69;;;-4.55;100.00
13080;BME280;6606;49.154;9.280;2023-12-04T04:36:39;99620.88;;;-4.49;100.00
13080;BME280;6606;49.154;9.280;2023-12-04T04:39:21;99620.88;;;-4.46;100.00
13080;BME280;6606;49.154;9.280;2023-12-04T04:42:04;99620.03;;;-4.42;100.00
13080;BME280;6606;49.154;9.280;2023-12-04T04:44:46;99615.72;;;-4.38;100.00
13080;BME280;6606;49.154;9.280;2023-12-04T04:47:28;99606.25;;;-4.31;100.00
13080;BME280;6606;49.154;9.280;2023-12-04T04:50:12;99607.13;;;-4.29;100.00
13080;BME280;6606;49.154;9.280;2023-12-04T04:52:54;99600.19;;;-4.40;100.00
13080;BME280;6606;49.154;9.280;2023-12-04T04:55:36;99614.84;;;-4.45;100.00
13080;BME280;6606;49.154;9.280;2023-12-04T04:58:17;99617.47;;;-4.38;100.00
13080;BME280;6606;49.154;9.280;2023-12-04T05:00:59;99616.63;;;-4.30;100.00
13080;BME280;6606;49.154;9.280;2023-12-04T05:03:42;99617.53;;;-4.20;100.00
13080;BME280;6606;49.154;9.280;2023-12-04T05:06:26;99610.63;;;-4.12;100.00
13080;BME280;6606;49.154;9.280;2023-12-04T05:09:09;99612.34;;;-4.14;100.00
13080;BME280;6606;49.154;9.280;2023-12-04T05:11:53;99608.03;;;-4.12;100.00
13080;BME280;6606;49.154;9.280;2023-12-04T05:14:36;99600.25;;;-4.12;100.00
13080;BME280;6606;49.154;9.280;2023-12-04T05:17:20;99599.38;;;-4.23;100.00
13080;BME280;6606;49.154;9.280;2023-12-04T05:20:11;99592.47;;;-4.20;100.00
13080;BME280;6606;49.154;9.280;2023-12-04T05:22:59;99605.44;;;-4.15;100.00
13080;BME280;6606;49.154;9.280;2023-12-04T05:25:45;99598.50;;;-4.19;100.00
13080;BME280;6606;49.154;9.280;2023-12-04T05:28:30;99600.25;;;-4.09;100.00
13080;BME280;6606;49.154;9.280;2023-12-04T05:31:14;99601.16;;;-4.01;100.00
13080;BME280;6606;49.154;9.280;2023-12-04T05:34:05;99583.88;;;-4.02;100.00
13080;BME280;6606;49.154;9.280;2023-12-04T05:36:49;99581.28;;;-3.96;100.00
13080;BME280;6606;49.154;9.280;2023-12-04T05:39:47;99577.81;;;-4.07;100.00
13080;BME280;6606;49.154;9.280;2023-12-04T05:42:29;99578.63;;;-4.11;100.00
13080;BME280;6606;49.154;9.280;2023-12-04T05:45:15;99566.56;;;-4.09;100.00
13080;BME280;6606;49.154;9.280;2023-12-04T05:48:08;99558.78;;;-4.03;100.00
13080;BME280;6606;49.154;9.280;2023-12-04T05:50:51;99558.78;;;-4.12;100.00
13080;BME280;6606;49.154;9.280;2023-12-04T05:53:36;99555.31;;;-4.12;100.00
13080;BME280;6606;49.154;9.280;2023-12-04T05:56:21;99554.44;;;-4.16;100.00
13080;BME280;6606;49.154;9.280;2023-12-04T05:59:02;99562.19;;;-4.28;100.00
13080;BME280;6606;49.154;9.280;2023-12-04T06:01:45;99569.09;;;-4.27;100.00
13080;BME280;6606;49.154;9.280;2023-12-04T06:04:27;99560.47;;;-4.31;100.00
13080;BME280;6606;49.154;9.280;2023-12-04T06:07:09;99558.72;;;-4.24;100.00
13080;BME280;6606;49.154;9.280;2023-12-04T06:09:55;99559.63;;;-4.21;100.00
13080;BME280;6606;49.154;9.280;2023-12-04T06:12:38;99562.22;;;-4.22;100.00
13080;BME280;6606;49.154;9.280;2023-12-04T06:15:20;99560.47;;;-4.23;100.00
13080;BME280;6606;49.154;9.280;2023-12-04T06:18:02;99556.16;;;-4.26;100.00
13080;BME280;6606;49.154;9.280;2023-12-04T06:20:45;99557.00;;;-4.27;100.00
13080;BME280;6606;49.154;9.280;2023-12-04T06:23:27;99560.50;;;-4.20;100.00
13080;BME280;6606;49.154;9.280;2023-12-04T06:26:10;99563.06;;;-4.28;100.00
13080;BME280;6606;49.154;9.280;2023-12-04T06:28:57;99563.06;;;-4.34;100.00
13080;BME280;6606;49.154;9.280;2023-12-04T06:31:40;99556.97;;;-4.34;100.00
13080;BME280;6606;49.154;9.280;2023-12-04T06:34:23;99563.00;;;-4.40;100.00
13080;BME280;6606;49.154;9.280;2023-12-04T06:37:09;99571.66;;;-4.47;100.00
13080;BME280;6606;49.154;9.280;2023-12-04T06:39:52;99577.72;;;-4.41;100.00
13080;BME280;6606;49.154;9.280;2023-12-04T06:42:35;99579.44;;;-4.47;100.00
13080;BME280;6606;49.154;9.280;2023-12-04T06:45:19;99588.06;;;-4.47;100.00
13080;BME280;6606;49.154;9.280;2023-12-04T06:48:01;99582.91;;;-4.37;100.00
13080;BME280;6606;49.154;9.280;2023-12-04T06:50:43;99575.13;;;-4.33;100.00
13080;BME280;6606;49.154;9.280;2023-12-04T06:53:25;99557.88;;;-4.26;100.00
13080;BME280;6606;49.154;9.280;2023-12-04T06:56:08;99562.22;;;-4.16;100.00
13080;BME280;6606;49.154;9.280;2023-12-04T06:58:50;99558.78;;;-4.18;100.00
13080;BME280;6606;49.154;9.280;2023-12-04T07:01:34;99558.72;;;-4.21;100.00
13080;BME280;6606;49.154;9.280;2023-12-04T07:04:15;99557.06;;;-4.10;100.00
13080;BME280;6606;49.154;9.280;2023-12-04T07:07:01;99554.44;;;-4.16;100.00
13080;BME280;6606;49.154;9.280;2023-12-04T07:09:45;99551.00;;;-4.06;100.00
13080;BME280;6606;49.154;9.280;2023-12-04T07:12:27;99544.97;;;-3.99;100.00
13080;BME280;6606;49.154;9.280;2023-12-04T07:15:09;99531.13;;;-3.88;100.00
13080;BME280;6606;49.154;9.280;2023-12-04T07:17:53;99532.88;;;-3.81;100.00
13080;BME280;6606;49.154;9.280;2023-12-04T07:20:34;99530.25;;;-3.77;100.00
13080;BME280;6606;49.154;9.280;2023-12-04T07:23:16;99525.94;;;-3.76;100.00
13080;BME280;6606;49.154;9.280;2023-12-04T07:25:58;99517.28;;;-3.66;100.00
13080;BME280;6606;49.154;9.280;2023-12-04T07:28:39;99509.47;;;-3.51;100.00
13080;BME280;6606;49.154;9.280;2023-12-04T07:31:21;99520.72;;;-3.36;100.00
13080;BME280;6606;49.154;9.280;2023-12-04T07:34:04;99499.91;;;-3.22;100.00
13080;BME280;6606;49.154;9.280;2023-12-04T07:36:46;99505.97;;;-3.22;100.00
13080;BME280;6606;49.154;9.280;2023-12-04T07:39:28;99494.69;;;-3.13;100.00
13080;BME280;6606;49.154;9.280;2023-12-04T07:42:10;99491.19;;;-2.98;100.00
13080;BME280;6606;49.154;9.280;2023-12-04T07:44:52;99484.25;;;-3.02;100.00
13080;BME280;6606;49.154;9.280;2023-12-04T07:47:34;99484.19;;;-2.87;100.00
13080;BME280;6606;49.154;9.280;2023-12-04T07:50:17;99472.97;;;-2.97;100.00
13080;BME280;6606;49.154;9.280;2023-12-04T07:52:59;99485.94;;;-2.89;100.00
13080;BME280;6606;49.154;9.280;2023-12-04T07:55:40;99494.53;;;-2.72;100.00
13080;BME280;6606;49.154;9.280;2023-12-04T07:58:24;99496.38;;;-2.98;100.00
13080;BME280;6606;49.154;9.280;2023-12-04T08:01:06;99479.84;;;-2.80;100.00
13080;BME280;6606;49.154;9.280;2023-12-04T08:03:48;99459.16;;;-3.08;100.00
13080;BME280;6606;49.154;9.280;2023-12-04T08:06:31;99475.53;;;-2.85;100.00
13080;BME280;6606;49.154;9.280;2023-12-04T08:09:13;99471.16;;;-2.70;100.00
13080;BME280;6606;49.154;9.280;2023-12-04T08:11:55;99465.09;;;-2.77;100.00
13080;BME280;6606;49.154;9.280;2023-12-04T08:14:37;99459.94;;;-2.83;100.00
13080;BME280;6606;49.154;9.280;2023-12-04T08:17:19;99456.34;;;-2.60;100.00
13080;BME280;6606;49.154;9.280;2023-12-04T08:20:00;99455.31;;;-2.36;100.00
13080;BME280;6606;49.154;9.280;2023-12-04T08:22:43;99449.19;;;-2.25;100.00
13080;BME280;6606;49.154;9.280;2023-12-04T08:25:25;99442.25;;;-2.29;100.00
13080;BME280;6606;49.154;9.280;2023-12-04T08:28:07;99438.13;;;-2.56;100.00
13080;BME280;6606;49.154;9.280;2023-12-04T08:30:49;99419.91;;;-2.51;100.00
13080;BME280;6606;49.154;9.280;2023-12-04T08:33:31;99404.78;;;-2.03;100.00
13080;BME280;6606;49.154;9.280;2023-12-04T08:36:13;99398.66;;;-1.96;100.00
13080;BME280;6606;49.154;9.280;2023-12-04T08:38:56;99401.38;;;-2.11;100.00
13080;BME280;6606;49.154;9.280;2023-12-04T08:41:37;99407.50;;;-2.19;100.00
13080;BME280;6606;49.154;9.280;2023-12-04T08:44:19;99434.09;;;-1.86;100.00
13080;BME280;6606;49.154;9.280;2023-12-04T08:47:01;99433.03;;;-1.63;100.00
13080;BME280;6606;49.154;9.280;2023-12-04T08:49:43;99423.47;;;-1.61;100.00
13080;BME280;6606;49.154;9.280;2023-12-04T08:52:25;99432.81;;;-1.42;100.00
13080;BME280;6606;49.154;9.280;2023-12-04T08:55:09;99423.97;;;-1.28;100.00
13080;BME280;6606;49.154;9.280;2023-12-04T08:57:51;99425.69;;;-1.24;100.00
13080;BME280;6606;49.154;9.280;2023-12-04T09:00:33;99424.81;;;-1.26;100.00
13080;BME280;6606;49.154;9.280;2023-12-04T09:03:16;99432.47;;;-1.14;100.00
13080;BME280;6606;49.154;9.280;2023-12-04T09:06:00;99441.03;;;-1.03;100.00
13080;BME280;6606;49.154;9.280;2023-12-04T09:08:41;99429.53;;;-0.87;100.00
13080;BME280;6606;49.154;9.280;2023-12-04T09:11:24;99433.31;;;-1.11;100.00
13080;BME280;6606;49.154;9.280;2023-12-04T09:14:06;99430.44;;;-0.89;100.00
13080;BME280;6606;49.154;9.280;2023-12-04T09:16:48;99422.28;;;-0.63;100.00
13080;BME280;6606;49.154;9.280;2023-12-04T09:19:30;99428.34;;;-0.61;100.00
13080;BME280;6606;49.154;9.280;2023-12-04T09:22:12;99428.50;;;-0.73;100.00
13080;BME280;6606;49.154;9.280;2023-12-04T09:24:54;99415.19;;;-0.55;100.00
13080;BME280;6606;49.154;9.280;2023-12-04T09:27:37;99426.41;;;-0.50;100.00
13080;BME280;6606;49.154;9.280;2023-12-04T09:30:18;99426.28;;;-0.40;100.00
13080;BME280;6606;49.154;9.280;2023-12-04T09:33:00;99436.72;;;-0.40;100.00
13080;BME280;6606;49.154;9.280;2023-12-04T09:35:42;99434.75;;;-0.26;100.00
13080;BME280;6606;49.154;9.280;2023-12-04T09:38:24;99430.78;;;-0.50;100.00
13080;BME280;6606;49.154;9.280;2023-12-04T09:41:06;99431.75;;;-0.56;100.00
13080;BME280;6606;49.154;9.280;2023-12-04T09:43:51;99422.41;;;-0.15;100.00
13080;BME280;6606;49.154;9.280;2023-12-04T09:46:34;99438.00;;;-0.12;100.00
13080;BME280;6606;49.154;9.280;2023-12-04T09:49:16;99429.25;;;-0.08;100.00
13080;BME280;6606;49.154;9.280;2023-12-04T09:52:00;99421.00;;;-0.37;100.00
13080;BME280;6606;49.154;9.280;2023-12-04T09:54:44;99402.88;;;-0.45;100.00
13080;BME280;6606;49.154;9.280;2023-12-04T09:57:26;99397.94;;;-0.63;100.00
13080;BME280;6606;49.154;9.280;2023-12-04T10:00:10;99405.69;;;-0.59;100.00
13080;BME280;6606;49.154;9.280;2023-12-04T10:02:53;99393.06;;;-0.29;100.00
13080;BME280;6606;49.154;9.280;2023-12-04T10:05:35;99387.75;;;-0.23;100.00
13080;BME280;6606;49.154;9.280;2023-12-04T10:08:17;99378.28;;;-0.29;100.00
13080;BME280;6606;49.154;9.280;2023-12-04T10:10:59;99373.47;;;-0.04;100.00
13080;BME280;6606;49.154;9.280;2023-12-04T10:13:41;99372.16;;;0.22;100.00
13080;BME280;6606;49.154;9.280;2023-12-04T10:16:35;99375.38;;;0.36;100.00
13080;BME280;6606;49.154;9.280;2023-12-04T10:19:20;99371.84;;;0.39;100.00
13080;BME280;6606;49.154;9.280;2023-12-04T10:22:07;99378.81;;;0.38;100.00
13080;BME280;6606;49.154;9.280;2023-12-04T10:24:50;99379.44;;;0.51;100.00
13080;BME280;6606;49.154;9.280;2023-12-04T10:27:32;99381.09;;;0.55;100.00
13080;BME280;6606;49.154;9.280;2023-12-04T10:30:25;99372.88;;;0.30;100.00
13080;BME280;6606;49.154;9.280;2023-12-04T10:33:09;99367.19;;;0.55;100.00
13080;BME280;6606;49.154;9.280;2023-12-04T10:35:51;99353.78;;;0.72;100.00
13080;BME280;6606;49.154;9.280;2023-12-04T10:38:33;99354.25;;;0.47;100.00
13080;BME280;6606;49.154;9.280;2023-12-04T10:41:15;99361.94;;;0.56;100.00
13080;BME280;6606;49.154;9.280;2023-12-04T10:43:57;99342.34;;;0.77;100.00
13080;BME280;6606;49.154;9.280;2023-12-04T10:46:39;99334.84;;;0.17;100.00
13080;BME280;6606;49.154;9.280;2023-12-04T10:49:26;99344.94;;;0.35;100.00
13080;BME280;6606;49.154;9.280;2023-12-04T10:52:08;99355.94;;;0.51;100.00
13080;BME280;6606;49.154;9.280;2023-12-04T10:54:50;99358.34;;;0.62;100.00
13080;BME280;6606;49.154;9.280;2023-12-04T10:57:37;99366.88;;;0.70;100.00
13080;BME280;6606;49.154;9.280;2023-12-04T11:00:20;99362.16;;;0.45;100.00
13080;BME280;6606;49.154;9.280;2023-12-04T11:03:05;99352.56;;;0.46;100.00
13080;BME280;6606;49.154;9.280;2023-12-04T11:05:55;99337.72;;;0.48;100.00
13080;BME280;6606;49.154;9.280;2023-12-04T11:08:38;99351.06;;;0.76;100.00
13080;BME280;6606;49.154;9.280;2023-12-04T11:11:26;99332.19;;;1.02;100.00
13080;BME280;6606;49.154;9.280;2023-12-04T11:14:09;99335.31;;;1.20;100.00
13080;BME280;6606;49.154;9.280;2023-12-04T11:16:58;99332.88;;;1.12;100.00
13080;BME280;6606;49.154;9.280;2023-12-04T11:19:55;99323.75;;;0.89;100.00
13080;BME280;6606;49.154;9.280;2023-12-04T11:22:45;99321.53;;;1.11;100.00
13080;BME280;6606;49.154;9.280;2023-12-04T11:25:28;99305.47;;;0.89;100.00
13080;BME280;6606;49.154;9.280;2023-12-04T11:28:15;99297.63;;;0.49;100.00
13080;BME280;6606;49.154;9.280;2023-12-04T11:30:58;99296.69;;;0.52;100.00
13080;BME280;6606;49.154;9.280;2023-12-04T11:33:41;99291.00;;;0.73;100.00
13080;BME280;6606;49.154;9.280;2023-12-04T11:36:23;99298.75;;;0.79;100.00
13080;BME280;6606;49.154;9.280;2023-12-04T11:39:10;99290.13;;;0.74;100.00
13080;BME280;6606;49.154;9.280;2023-12-04T11:41:52;99272.50;;;0.42;100.00
13080;BME280;6606;49.154;9.280;2023-12-04T11:44:34;99271.03;;;0.30;100.00
13080;BME280;6606;49.154;9.280;2023-12-04T11:47:16;99277.94;;;0.31;100.00
13080;BME280;6606;49.154;9.280;2023-12-04T11:49:59;99269.94;;;0.40;100.00
13080;BME280;6606;49.154;9.280;2023-12-04T11:52:41;99255.03;;;0.04;100.00
13080;BME280;6606;49.154;9.280;2023-12-04T11:55:26;99260.09;;;0.10;100.00
13080;BME280;6606;49.154;9.280;2023-12-04T11:58:09;99261.09;;;0.04;100.00
13080;BME280;6606;49.154;9.280;2023-12-04T12:00:51;99256.03;;;0.40;100.00
13080;BME280;6606;49.154;9.280;2023-12-04T12:03:36;99248.03;;;0.48;100.00
13080;BME280;6606;49.154;9.280;2023-12-04T12:06:18;99238.22;;;0.15;100.00
13080;BME280;6606;49.154;9.280;2023-12-04T12:09:00;99237.16;;;0.27;100.00
13080;BME280;6606;49.154;9.280;2023-12-04T12:11:43;99240.59;;;0.29;100.00
13080;BME280;6606;49.154;9.280;2023-12-04T12:14:25;99232.97;;;0.59;100.00
13080;BME280;6606;49.154;9.280;2023-12-04T12:17:07;99226.38;;;0.42;100.00
13080;BME280;6606;49.154;9.280;2023-12-04T12:19:50;99224.03;;;0.29;100.00
13080;BME280;6606;49.154;9.280;2023-12-04T12:22:31;99208.19;;;0.36;100.00
13080;BME280;6606;49.154;9.280;2023-12-04T12:25:13;99194.00;;;0.09;100.00
13080;BME280;6606;49.154;9.280;2023-12-04T12:28:02;99179.44;;;-0.03;100.00
13080;BME280;6606;49.154;9.280;2023-12-04T12:30:44;99183.38;;;0.17;100.00
13080;BME280;6606;49.154;9.280;2023-12-04T12:33:26;99167.56;;;0.23;100.00
13080;BME280;6606;49.154;9.280;2023-12-04T12:36:09;99166.06;;;0.13;100.00
13080;BME280;6606;49.154;9.280;2023-12-04T12:38:51;99154.16;;;-0.01;100.00
13080;BME280;6606;49.154;9.280;2023-12-04T12:41:33;99146.09;;;0.10;100.00
13080;BME280;6606;49.154;9.280;2023-12-04T12:44:17;99132.63;;;-0.10;100.00
13080;BME280;6606;49.154;9.280;2023-12-04T12:47:02;99138.00;;;-0.18;100.00
13080;BME280;6606;49.154;9.280;2023-12-04T12:49:44;99131.63;;;-0.05;100.00
13080;BME280;6606;49.154;9.280;2023-12-04T12:52:26;99120.56;;;0.23;100.00
13080;BME280;6606;49.154;9.280;2023-12-04T12:55:08;99124.53;;;0.41;100.00
13080;BME280;6606;49.154;9.280;2023-12-04T12:57:51;99112.88;;;0.56;100.00
13080;BME280;6606;49.154;9.280;2023-12-04T13:00:34;99111.28;;;0.49;100.00
13080;BME280;6606;49.154;9.280;2023-12-04T13:03:16;99119.56;;;0.30;100.00
13080;BME280;6606;49.154;9.280;2023-12-04T13:05:58;99106.91;;;0.12;100.00
13080;BME280;6606;49.154;9.280;2023-12-04T13:08:40;99088.88;;;0.38;100.00
13080;BME280;6606;49.154;9.280;2023-12-04T13:11:22;99090.72;;;0.35;100.00
13080;BME280;6606;49.154;9.280;2023-12-04T13:14:04;99083.44;;;0.10;100.00
13080;BME280;6606;49.154;9.280;2023-12-04T13:16:47;99081.47;;;0.21;100.00
13080;BME280;6606;49.154;9.280;2023-12-04T13:19:29;99070.94;;;0.24;100.00
13080;BME280;6606;49.154;9.280;2023-12-04T13:22:12;99063.19;;;0.20;100.00
13080;BME280;6606;49.154;9.280;2023-12-04T13:24:53;99058.13;;;0.50;100.00
13080;BME280;6606;49.154;9.280;2023-12-04T13:27:35;99054.97;;;0.71;100.00
13080;BME280;6606;49.154;9.280;2023-12-04T13:30:19;99050.09;;;0.59;100.00
13080;BME280;6606;49.154;9.280;2023-12-04T13:33:03;99047.47;;;0.59;100.00
13080;BME280;6606;49.154;9.280;2023-12-04T13:35:45;99035.97;;;0.30;100.00
13080;BME280;6606;49.154;9.280;2023-12-04T13:38:27;99040.13;;;0.73;100.00
13080;BME280;6606;49.154;9.280;2023-12-04T13:41:09;99033.66;;;0.54;100.00
13080;BME280;6606;49.154;9.280;2023-12-04T13:44:20;99025.81;;;0.54;100.00
13080;BME280;6606;49.154;9.280;2023-12-04T13:47:00;99037.19;;;0.53;100.00
13080;BME280;6606;49.154;9.280;2023-12-04T13:49:43;99020.09;;;0.39;100.00
13080;BME280;6606;49.154;9.280;2023-12-04T13:52:29;99019.03;;;0.46;100.00
13080;BME280;6606;49.154;9.280;2023-12-04T13:55:14;99018.91;;;0.53;100.00
13080;BME280;6606;49.154;9.280;2023-12-04T13:58:00;99004.34;;;0.75;100.00
13080;BME280;6606;49.154;9.280;2023-12-04T14:00:50;98982.44;;;0.81;100.00
13080;BME280;6606;49.154;9.280;2023-12-04T14:03:33;98995.84;;;0.68;100.00
13080;BME280;6606;49.154;9.280;2023-12-04T14:06:17;98972.47;;;0.62;100.00
13080;BME280;6606;49.154;9.280;2023-12-04T14:08:59;98971.28;;;0.74;100.00
13080;BME280;6606;49.154;9.280;2023-12-04T14:11:44;98967.22;;;0.64;100.00
13080;BME280;6606;49.154;9.280;2023-12-04T14:14:26;98966.66;;;0.84;100.00
13080;BME280;6606;49.154;9.280;2023-12-04T14:17:08;98956.84;;;0.92;100.00
13080;BME280;6606;49.154;9.280;2023-12-04T14:19:50;98953.13;;;1.01;100.00
13080;BME280;6606;49.154;9.280;2023-12-04T14:22:34;98949.81;;;0.94;100.00
13080;BME280;6606;49.154;9.280;2023-12-04T14:25:16;98953.97;;;0.70;100.00